sensor_id;sensor_type;location;lat;lon;timestamp;temperature;humidity
67186;HTU21D;54116;53.518;49.398;2024-03-08T00:00:09;-17.01;118.99
67186;HTU21D;54116;53.518;49.398;2024-03-08T00:02:38;-17.01;118.99
67186;HTU21D;54116;53.518;49.398;2024-03-08T00:05:06;-16.92;118.99
67186;HTU21D;54116;53.518;49.398;2024-03-08T00:07:33;-17.12;118.99
67186;HTU21D;54116;53.518;49.398;2024-03-08T00:09:59;-17.15;118.99
67186;HTU21D;54116;53.518;49.398;2024-03-08T00:12:26;-17.06;118.99
67186;HTU21D;54116;53.518;49.398;2024-03-08T00:14:53;-17.22;118.99
67186;HTU21D;54116;53.518;49.398;2024-03-08T00:17:22;-17.18;118.99
67186;HTU21D;54116;53.518;49.398;2024-03-08T00:19:49;-17.14;118.99
67186;HTU21D;54116;53.518;49.398;2024-03-08T00:22:16;-17.24;118.99
67186;HTU21D;54116;53.518;49.398;2024-03-08T00:24:43;-17.33;118.99
67186;HTU21D;54116;53.518;49.398;2024-03-08T00:27:10;-17.36;118.99
67186;HTU21D;54116;53.518;49.398;2024-03-08T00:29:37;-17.25;118.99
67186;HTU21D;54116;53.518;49.398;2024-03-08T00:32:06;-17.18;118.99
67186;HTU21D;54116;53.518;49.398;2024-03-08T00:34:36;-17.25;118.99
67186;HTU21D;54116;53.518;49.398;2024-03-08T00:37:03;-17.42;118.99
67186;HTU21D;54116;53.518;49.398;2024-03-08T00:39:30;-17.45;118.99
67186;HTU21D;54116;53.518;49.398;2024-03-08T00:41:56;-17.43;118.99
67186;HTU21D;54116;53.518;49.398;2024-03-08T00:44:22;-17.55;118.99
67186;HTU21D;54116;53.518;49.398;2024-03-08T00:46:49;-17.59;118.99
67186;HTU21D;54116;53.518;49.398;2024-03-08T00:49:15;-17.52;118.99
67186;HTU21D;54116;53.518;49.398;2024-03-08T00:51:41;-17.55;118.99
67186;HTU21D;54116;53.518;49.398;2024-03-08T00:54:07;-17.46;118.99
67186;HTU21D;54116;53.518;49.398;2024-03-08T00:56:34;-17.42;118.99
67186;HTU21D;54116;53.518;49.398;2024-03-08T00:59:01;-17.41;118.99
67186;HTU21D;54116;53.518;49.398;2024-03-08T01:01:28;-17.43;118.99
67186;HTU21D;54116;53.518;49.398;2024-03-08T01:03:54;-17.48;118.99
67186;HTU21D;54116;53.518;49.398;2024-03-08T01:06:20;-17.50;118.99
67186;HTU21D;54116;53.518;49.398;2024-03-08T01:08:47;-17.42;118.99
67186;HTU21D;54116;53.518;49.398;2024-03-08T01:11:13;-17.51;118.99
67186;HTU21D;54116;53.518;49.398;2024-03-08T01:13:40;-17.55;118.99
67186;HTU21D;54116;53.518;49.398;2024-03-08T01:16:06;-17.58;118.99
67186;HTU21D;54116;53.518;49.398;2024-03-08T01:18:32;-17.58;118.99
67186;HTU21D;54116;53.518;49.398;2024-03-08T01:20:58;-17.57;118.99
67186;HTU21D;54116;53.518;49.398;2024-03-08T01:23:24;-17.60;118.99
67186;HTU21D;54116;53.518;49.398;2024-03-08T01:25:50;-17.51;118.99
67186;HTU21D;54116;53.518;49.398;2024-03-08T01:28:26;-17.36;118.99
67186;HTU21D;54116;53.518;49.398;2024-03-08T01:30:52;-17.38;118.99
67186;HTU21D;54116;53.518;49.398;2024-03-08T01:33:25;-17.41;118.99
67186;HTU21D;54116;53.518;49.398;2024-03-08T01:35:54;-17.44;118.99
67186;HTU21D;54116;53.518;49.398;2024-03-08T01:38:20;-17.41;118.99
67186;HTU21D;54116;53.518;49.398;2024-03-08T01:40:50;-17.37;118.99
67186;HTU21D;54116;53.518;49.398;2024-03-08T01:43:27;-17.36;118.99
67186;HTU21D;54116;53.518;49.398;2024-03-08T01:46:03;-17.45;118.99
67186;HTU21D;54116;53.518;49.398;2024-03-08T01:48:30;-17.29;118.99
67186;HTU21D;54116;53.518;49.398;2024-03-08T01:50:57;-17.31;118.99
67186;HTU21D;54116;53.518;49.398;2024-03-08T01:53:32;-17.29;118.99
67186;HTU21D;54116;53.518;49.398;2024-03-08T01:55:59;-17.29;118.99
67186;HTU21D;54116;53.518;49.398;2024-03-08T01:58:27;-17.38;118.99
67186;HTU21D;54116;53.518;49.398;2024-03-08T02:00:54;-17.38;118.99
67186;HTU21D;54116;53.518;49.398;2024-03-08T02:03:21;-17.26;118.99
67186;HTU21D;54116;53.518;49.398;2024-03-08T02:05:51;-17.23;118.99
67186;HTU21D;54116;53.518;49.398;2024-03-08T02:08:20;-17.36;118.99
67186;HTU21D;54116;53.518;49.398;2024-03-08T02:10:48;-17.32;118.99
67186;HTU21D;54116;53.518;49.398;2024-03-08T02:13:15;-17.39;118.99
67186;HTU21D;54116;53.518;49.398;2024-03-08T02:15:55;-17.44;118.99
67186;HTU21D;54116;53.518;49.398;2024-03-08T02:18:22;-17.43;118.99
67186;HTU21D;54116;53.518;49.398;2024-03-08T02:20:50;-17.39;118.99
67186;HTU21D;54116;53.518;49.398;2024-03-08T02:23:17;-17.53;118.99
67186;HTU21D;54116;53.518;49.398;2024-03-08T02:25:43;-17.59;118.99
67186;HTU21D;54116;53.518;49.398;2024-03-08T02:28:11;-17.53;118.99
67186;HTU21D;54116;53.518;49.398;2024-03-08T02:30:38;-17.54;118.99
67186;HTU21D;54116;53.518;49.398;2024-03-08T02:33:04;-17.56;118.99
67186;HTU21D;54116;53.518;49.398;2024-03-08T02:35:32;-17.62;118.99
67186;HTU21D;54116;53.518;49.398;2024-03-08T02:37:58;-17.58;118.99
67186;HTU21D;54116;53.518;49.398;2024-03-08T02:40:25;-17.61;118.99
67186;HTU21D;54116;53.518;49.398;2024-03-08T02:42:51;-17.66;118.99
67186;HTU21D;54116;53.518;49.398;2024-03-08T02:45:17;-17.48;118.99
67186;HTU21D;54116;53.518;49.398;2024-03-08T02:47:47;-17.55;118.99
67186;HTU21D;54116;53.518;49.398;2024-03-08T02:50:16;-17.67;118.99
67186;HTU21D;54116;53.518;49.398;2024-03-08T02:52:43;-17.56;118.99
67186;HTU21D;54116;53.518;49.398;2024-03-08T02:55:09;-17.66;118.99
67186;HTU21D;54116;53.518;49.398;2024-03-08T02:57:36;-17.65;118.99
67186;HTU21D;54116;53.518;49.398;2024-03-08T03:00:03;-17.65;118.99
67186;HTU21D;54116;53.518;49.398;2024-03-08T03:02:35;-17.74;118.99
67186;HTU21D;54116;53.518;49.398;2024-03-08T03:05:01;-17.74;118.99
67186;HTU21D;54116;53.518;49.398;2024-03-08T03:07:35;-17.77;118.99
67186;HTU21D;54116;53.518;49.398;2024-03-08T03:10:01;-17.86;118.99
67186;HTU21D;54116;53.518;49.398;2024-03-08T03:12:28;-17.90;118.99
67186;HTU21D;54116;53.518;49.398;2024-03-08T03:14:54;-17.87;118.99
67186;HTU21D;54116;53.518;49.398;2024-03-08T03:17:25;-17.86;118.99
67186;HTU21D;54116;53.518;49.398;2024-03-08T03:19:52;-17.82;118.99
67186;HTU21D;54116;53.518;49.398;2024-03-08T03:22:19;-17.84;118.99
67186;HTU21D;54116;53.518;49.398;2024-03-08T03:24:46;-17.78;118.99
67186;HTU21D;54116;53.518;49.398;2024-03-08T03:27:13;-17.63;118.99
67186;HTU21D;54116;53.518;49.398;2024-03-08T03:29:41;-17.60;118.99
67186;HTU21D;54116;53.518;49.398;2024-03-08T03:32:14;-17.57;118.99
67186;HTU21D;54116;53.518;49.398;2024-03-08T03:34:41;-17.56;118.99
67186;HTU21D;54116;53.518;49.398;2024-03-08T03:37:09;-17.52;118.99
67186;HTU21D;54116;53.518;49.398;2024-03-08T03:39:39;-17.42;118.99
67186;HTU21D;54116;53.518;49.398;2024-03-08T03:42:15;-17.22;118.99
67186;HTU21D;54116;53.518;49.398;2024-03-08T03:44:45;-17.03;118.99
67186;HTU21D;54116;53.518;49.398;2024-03-08T03:47:11;-16.55;118.99
67186;HTU21D;54116;53.518;49.398;2024-03-08T03:49:37;-16.17;118.99
67186;HTU21D;54116;53.518;49.398;2024-03-08T03:52:03;-16.08;118.99
67186;HTU21D;54116;53.518;49.398;2024-03-08T03:54:30;-15.96;118.99
67186;HTU21D;54116;53.518;49.398;2024-03-08T03:56:57;-15.73;118.99
67186;HTU21D;54116;53.518;49.398;2024-03-08T03:59:24;-15.52;118.99
67186;HTU21D;54116;53.518;49.398;2024-03-08T04:01:50;-15.20;118.99
67186;HTU21D;54116;53.518;49.398;2024-03-08T04:04:16;-15.03;118.99
67186;HTU21D;54116;53.518;49.398;2024-03-08T04:06:42;-15.30;118.99
67186;HTU21D;54116;53.518;49.398;2024-03-08T04:09:09;-15.54;118.99
67186;HTU21D;54116;53.518;49.398;2024-03-08T04:11:35;-15.70;118.99
67186;HTU21D;54116;53.518;49.398;2024-03-08T04:14:01;-15.77;118.99
67186;HTU21D;54116;53.518;49.398;2024-03-08T04:16:27;-15.68;118.99
67186;HTU21D;54116;53.518;49.398;2024-03-08T04:18:53;-15.44;118.99
67186;HTU21D;54116;53.518;49.398;2024-03-08T04:21:20;-15.34;118.99
67186;HTU21D;54116;53.518;49.398;2024-03-08T04:23:46;-15.29;118.99
67186;HTU21D;54116;53.518;49.398;2024-03-08T04:26:12;-15.36;118.99
67186;HTU21D;54116;53.518;49.398;2024-03-08T04:28:38;-15.52;118.99
67186;HTU21D;54116;53.518;49.398;2024-03-08T04:31:05;-15.55;118.99
67186;HTU21D;54116;53.518;49.398;2024-03-08T04:33:32;-15.36;118.99
67186;HTU21D;54116;53.518;49.398;2024-03-08T04:35:58;-15.08;118.99
67186;HTU21D;54116;53.518;49.398;2024-03-08T04:38:24;-14.61;118.99
67186;HTU21D;54116;53.518;49.398;2024-03-08T04:40:51;-14.11;118.99
67186;HTU21D;54116;53.518;49.398;2024-03-08T04:43:21;-12.80;118.99
67186;HTU21D;54116;53.518;49.398;2024-03-08T04:45:47;-12.08;118.99
67186;HTU21D;54116;53.518;49.398;2024-03-08T04:48:14;-11.97;118.99
67186;HTU21D;54116;53.518;49.398;2024-03-08T04:50:41;-11.70;118.99
67186;HTU21D;54116;53.518;49.398;2024-03-08T04:53:07;-10.78;118.99
67186;HTU21D;54116;53.518;49.398;2024-03-08T04:55:35;-10.67;118.99
67186;HTU21D;54116;53.518;49.398;2024-03-08T04:58:02;-10.18;118.99
67186;HTU21D;54116;53.518;49.398;2024-03-08T05:00:29;-9.91;118.99
67186;HTU21D;54116;53.518;49.398;2024-03-08T05:02:56;-9.63;118.99
67186;HTU21D;54116;53.518;49.398;2024-03-08T05:05:22;-9.76;118.99
67186;HTU21D;54116;53.518;49.398;2024-03-08T05:07:48;-9.22;118.99
67186;HTU21D;54116;53.518;49.398;2024-03-08T05:10:15;-8.73;118.99
67186;HTU21D;54116;53.518;49.398;2024-03-08T05:12:44;-8.34;118.99
67186;HTU21D;54116;53.518;49.398;2024-03-08T05:15:10;-7.79;118.99
67186;HTU21D;54116;53.518;49.398;2024-03-08T05:17:36;-8.08;118.99
67186;HTU21D;54116;53.518;49.398;2024-03-08T05:20:02;-9.89;118.99
67186;HTU21D;54116;53.518;49.398;2024-03-08T05:22:29;-10.31;118.99
67186;HTU21D;54116;53.518;49.398;2024-03-08T05:24:55;-9.48;118.99
67186;HTU21D;54116;53.518;49.398;2024-03-08T05:27:22;-8.48;118.99
67186;HTU21D;54116;53.518;49.398;2024-03-08T05:29:48;-7.49;118.99
67186;HTU21D;54116;53.518;49.398;2024-03-08T05:32:14;-6.39;118.99
67186;HTU21D;54116;53.518;49.398;2024-03-08T05:34:40;-6.42;118.99
67186;HTU21D;54116;53.518;49.398;2024-03-08T05:37:06;-6.01;118.99
67186;HTU21D;54116;53.518;49.398;2024-03-08T05:39:33;-6.61;118.99
67186;HTU21D;54116;53.518;49.398;2024-03-08T05:41:59;-6.36;118.99
67186;HTU21D;54116;53.518;49.398;2024-03-08T05:44:25;-6.05;118.99
67186;HTU21D;54116;53.518;49.398;2024-03-08T05:46:54;-6.43;118.99
67186;HTU21D;54116;53.518;49.398;2024-03-08T05:49:21;-7.05;118.99
67186;HTU21D;54116;53.518;49.398;2024-03-08T05:51:48;-7.69;118.99
67186;HTU21D;54116;53.518;49.398;2024-03-08T05:54:14;-8.05;118.99
67186;HTU21D;54116;53.518;49.398;2024-03-08T05:56:40;-8.58;118.99
67186;HTU21D;54116;53.518;49.398;2024-03-08T05:59:09;-8.79;118.99
67186;HTU21D;54116;53.518;49.398;2024-03-08T06:01:35;-8.99;118.99
67186;HTU21D;54116;53.518;49.398;2024-03-08T06:04:03;-9.26;118.99
67186;HTU21D;54116;53.518;49.398;2024-03-08T06:06:29;-9.55;118.99
67186;HTU21D;54116;53.518;49.398;2024-03-08T06:08:55;-9.72;118.99
67186;HTU21D;54116;53.518;49.398;2024-03-08T06:11:34;-10.03;118.99
67186;HTU21D;54116;53.518;49.398;2024-03-08T06:14:00;-10.21;118.99
67186;HTU21D;54116;53.518;49.398;2024-03-08T06:16:27;-10.13;118.99
67186;HTU21D;54116;53.518;49.398;2024-03-08T06:18:57;-9.92;118.99
67186;HTU21D;54116;53.518;49.398;2024-03-08T06:21:24;-10.15;118.99
67186;HTU21D;54116;53.518;49.398;2024-03-08T06:23:54;-10.43;118.99
67186;HTU21D;54116;53.518;49.398;2024-03-08T06:26:21;-10.48;118.99
67186;HTU21D;54116;53.518;49.398;2024-03-08T06:28:48;-10.49;118.99
67186;HTU21D;54116;53.518;49.398;2024-03-08T06:31:14;-10.07;118.99
67186;HTU21D;54116;53.518;49.398;2024-03-08T06:33:40;-9.61;118.99
67186;HTU21D;54116;53.518;49.398;2024-03-08T06:36:07;-9.55;118.99
67186;HTU21D;54116;53.518;49.398;2024-03-08T06:38:33;-10.01;118.99
67186;HTU21D;54116;53.518;49.398;2024-03-08T06:40:59;-9.99;118.99
67186;HTU21D;54116;53.518;49.398;2024-03-08T06:43:26;-10.12;118.99
67186;HTU21D;54116;53.518;49.398;2024-03-08T06:45:59;-10.62;118.99
67186;HTU21D;54116;53.518;49.398;2024-03-08T06:48:25;-10.74;118.99
67186;HTU21D;54116;53.518;49.398;2024-03-08T06:50:52;-10.91;118.99
67186;HTU21D;54116;53.518;49.398;2024-03-08T06:53:18;-11.06;118.99
67186;HTU21D;54116;53.518;49.398;2024-03-08T06:55:47;-11.35;118.99
67186;HTU21D;54116;53.518;49.398;2024-03-08T06:58:13;-11.45;118.99
67186;HTU21D;54116;53.518;49.398;2024-03-08T07:00:39;-11.78;118.99
67186;HTU21D;54116;53.518;49.398;2024-03-08T07:03:08;-11.33;118.99
67186;HTU21D;54116;53.518;49.398;2024-03-08T07:05:38;-10.84;118.99
67186;HTU21D;54116;53.518;49.398;2024-03-08T07:08:06;-10.53;118.99
67186;HTU21D;54116;53.518;49.398;2024-03-08T07:10:32;-10.22;118.99
67186;HTU21D;54116;53.518;49.398;2024-03-08T07:12:58;-10.44;118.99
67186;HTU21D;54116;53.518;49.398;2024-03-08T07:15:26;-10.34;118.99
67186;HTU21D;54116;53.518;49.398;2024-03-08T07:17:53;-10.75;118.99
67186;HTU21D;54116;53.518;49.398;2024-03-08T07:20:19;-10.84;118.99
67186;HTU21D;54116;53.518;49.398;2024-03-08T07:22:46;-10.96;118.99
67186;HTU21D;54116;53.518;49.398;2024-03-08T07:25:22;-10.84;118.99
67186;HTU21D;54116;53.518;49.398;2024-03-08T07:27:54;-10.66;118.99
67186;HTU21D;54116;53.518;49.398;2024-03-08T07:30:22;-10.44;118.99
67186;HTU21D;54116;53.518;49.398;2024-03-08T07:33:07;-10.49;118.99
67186;HTU21D;54116;53.518;49.398;2024-03-08T07:35:33;-10.77;118.99
67186;HTU21D;54116;53.518;49.398;2024-03-08T07:38:09;-10.75;118.99
67186;HTU21D;54116;53.518;49.398;2024-03-08T07:40:36;-10.65;118.99
67186;HTU21D;54116;53.518;49.398;2024-03-08T07:43:04;-10.75;118.99
67186;HTU21D;54116;53.518;49.398;2024-03-08T07:45:31;-10.82;118.99
67186;HTU21D;54116;53.518;49.398;2024-03-08T07:47:57;-10.89;118.99
67186;HTU21D;54116;53.518;49.398;2024-03-08T07:50:23;-10.79;118.99
67186;HTU21D;54116;53.518;49.398;2024-03-08T07:52:49;-10.88;118.99
67186;HTU21D;54116;53.518;49.398;2024-03-08T07:55:18;-10.95;118.99
67186;HTU21D;54116;53.518;49.398;2024-03-08T07:57:44;-10.81;118.99
67186;HTU21D;54116;53.518;49.398;2024-03-08T08:00:11;-10.51;118.99
67186;HTU21D;54116;53.518;49.398;2024-03-08T08:02:44;-10.50;118.99
67186;HTU21D;54116;53.518;49.398;2024-03-08T08:05:11;-10.12;118.99
67186;HTU21D;54116;53.518;49.398;2024-03-08T08:07:37;-9.60;118.99
67186;HTU21D;54116;53.518;49.398;2024-03-08T08:10:04;-9.41;118.99
67186;HTU21D;54116;53.518;49.398;2024-03-08T08:12:32;-9.58;118.99
67186;HTU21D;54116;53.518;49.398;2024-03-08T08:15:00;-9.43;118.99
67186;HTU21D;54116;53.518;49.398;2024-03-08T08:17:26;-9.14;118.99
67186;HTU21D;54116;53.518;49.398;2024-03-08T08:19:52;-8.99;118.99
67186;HTU21D;54116;53.518;49.398;2024-03-08T08:22:18;-8.86;118.99
67186;HTU21D;54116;53.518;49.398;2024-03-08T08:24:44;-8.64;118.99
67186;HTU21D;54116;53.518;49.398;2024-03-08T08:27:11;-8.55;118.99
67186;HTU21D;54116;53.518;49.398;2024-03-08T08:29:37;-8.67;118.99
67186;HTU21D;54116;53.518;49.398;2024-03-08T08:32:03;-8.55;118.99
67186;HTU21D;54116;53.518;49.398;2024-03-08T08:34:29;-8.83;118.99
67186;HTU21D;54116;53.518;49.398;2024-03-08T08:36:56;-8.86;118.99
67186;HTU21D;54116;53.518;49.398;2024-03-08T08:39:22;-9.07;118.99
67186;HTU21D;54116;53.518;49.398;2024-03-08T08:41:48;-9.31;118.99
67186;HTU21D;54116;53.518;49.398;2024-03-08T08:44:15;-9.26;118.99
67186;HTU21D;54116;53.518;49.398;2024-03-08T08:46:41;-9.31;118.99
67186;HTU21D;54116;53.518;49.398;2024-03-08T08:49:07;-9.53;118.99
67186;HTU21D;54116;53.518;49.398;2024-03-08T08:51:36;-9.79;118.99
67186;HTU21D;54116;53.518;49.398;2024-03-08T08:54:03;-9.57;118.99
67186;HTU21D;54116;53.518;49.398;2024-03-08T08:56:29;-9.66;118.99
67186;HTU21D;54116;53.518;49.398;2024-03-08T08:58:55;-9.88;118.99
67186;HTU21D;54116;53.518;49.398;2024-03-08T09:01:21;-9.74;118.99
67186;HTU21D;54116;53.518;49.398;2024-03-08T09:03:48;-9.93;118.99
67186;HTU21D;54116;53.518;49.398;2024-03-08T09:06:16;-9.85;118.99
67186;HTU21D;54116;53.518;49.398;2024-03-08T09:08:43;-10.07;118.99
67186;HTU21D;54116;53.518;49.398;2024-03-08T09:11:11;-9.81;118.99
67186;HTU21D;54116;53.518;49.398;2024-03-08T09:13:38;-9.73;118.99
67186;HTU21D;54116;53.518;49.398;2024-03-08T09:16:04;-9.91;118.99
67186;HTU21D;54116;53.518;49.398;2024-03-08T09:18:33;-10.03;118.99
67186;HTU21D;54116;53.518;49.398;2024-03-08T09:20:59;-10.03;118.99
67186;HTU21D;54116;53.518;49.398;2024-03-08T09:23:25;-9.89;118.99
67186;HTU21D;54116;53.518;49.398;2024-03-08T09:25:58;-9.72;118.99
67186;HTU21D;54116;53.518;49.398;2024-03-08T09:28:25;-9.74;118.99
67186;HTU21D;54116;53.518;49.398;2024-03-08T09:30:52;-9.63;118.99
67186;HTU21D;54116;53.518;49.398;2024-03-08T09:33:18;-9.61;118.99
67186;HTU21D;54116;53.518;49.398;2024-03-08T09:35:46;-9.58;118.99
67186;HTU21D;54116;53.518;49.398;2024-03-08T09:38:17;-9.75;118.99
67186;HTU21D;54116;53.518;49.398;2024-03-08T09:40:43;-9.96;118.99
67186;HTU21D;54116;53.518;49.398;2024-03-08T09:43:09;-9.84;118.99
67186;HTU21D;54116;53.518;49.398;2024-03-08T09:45:40;-9.86;118.99
67186;HTU21D;54116;53.518;49.398;2024-03-08T09:48:18;-9.69;118.99
67186;HTU21D;54116;53.518;49.398;2024-03-08T09:50:45;-9.58;118.99
67186;HTU21D;54116;53.518;49.398;2024-03-08T09:53:11;-9.41;118.99
67186;HTU21D;54116;53.518;49.398;2024-03-08T09:55:38;-9.45;118.99
67186;HTU21D;54116;53.518;49.398;2024-03-08T09:58:12;-9.18;118.99
67186;HTU21D;54116;53.518;49.398;2024-03-08T10:00:54;-9.05;118.99
67186;HTU21D;54116;53.518;49.398;2024-03-08T10:03:23;-8.89;118.99
67186;HTU21D;54116;53.518;49.398;2024-03-08T10:05:51;-8.35;118.99
67186;HTU21D;54116;53.518;49.398;2024-03-08T10:08:17;-8.31;118.99
67186;HTU21D;54116;53.518;49.398;2024-03-08T10:10:44;-8.35;118.99
67186;HTU21D;54116;53.518;49.398;2024-03-08T10:13:11;-7.97;118.99
67186;HTU21D;54116;53.518;49.398;2024-03-08T10:15:42;-7.90;118.99
67186;HTU21D;54116;53.518;49.398;2024-03-08T10:18:08;-8.46;118.99
67186;HTU21D;54116;53.518;49.398;2024-03-08T10:20:36;-8.12;118.99
67186;HTU21D;54116;53.518;49.398;2024-03-08T10:23:03;-7.89;118.99
67186;HTU21D;54116;53.518;49.398;2024-03-08T10:25:31;-8.18;118.99
67186;HTU21D;54116;53.518;49.398;2024-03-08T10:27:57;-7.80;118.99
67186;HTU21D;54116;53.518;49.398;2024-03-08T10:30:23;-8.18;118.99
67186;HTU21D;54116;53.518;49.398;2024-03-08T10:32:50;-8.44;118.99
67186;HTU21D;54116;53.518;49.398;2024-03-08T10:35:17;-8.49;118.99
67186;HTU21D;54116;53.518;49.398;2024-03-08T10:37:48;-8.27;118.99
67186;HTU21D;54116;53.518;49.398;2024-03-08T10:40:25;-7.82;118.99
67186;HTU21D;54116;53.518;49.398;2024-03-08T10:42:59;-7.67;118.99
67186;HTU21D;54116;53.518;49.398;2024-03-08T10:45:34;-7.85;118.99
67186;HTU21D;54116;53.518;49.398;2024-03-08T10:48:29;-8.06;118.99
67186;HTU21D;54116;53.518;49.398;2024-03-08T10:51:07;-8.58;118.99
67186;HTU21D;54116;53.518;49.398;2024-03-08T10:53:34;-8.48;118.99
67186;HTU21D;54116;53.518;49.398;2024-03-08T10:56:00;-8.39;118.99
67186;HTU21D;54116;53.518;49.398;2024-03-08T10:58:28;-8.36;118.99
67186;HTU21D;54116;53.518;49.398;2024-03-08T11:00:56;-8.53;118.99
67186;HTU21D;54116;53.518;49.398;2024-03-08T11:03:49;-8.77;118.99
67186;HTU21D;54116;53.518;49.398;2024-03-08T11:06:43;-8.66;118.99
67186;HTU21D;54116;53.518;49.398;2024-03-08T11:09:27;-8.60;118.99
67186;HTU21D;54116;53.518;49.398;2024-03-08T11:12:25;-8.89;118.99
67186;HTU21D;54116;53.518;49.398;2024-03-08T11:14:53;-9.02;118.99
67186;HTU21D;54116;53.518;49.398;2024-03-08T11:17:49;-8.72;118.99
67186;HTU21D;54116;53.518;49.398;2024-03-08T11:20:20;-8.60;118.99
67186;HTU21D;54116;53.518;49.398;2024-03-08T11:22:55;-8.75;118.99
67186;HTU21D;54116;53.518;49.398;2024-03-08T11:25:42;-8.73;118.99
67186;HTU21D;54116;53.518;49.398;2024-03-08T11:30:45;-8.98;118.99
67186;HTU21D;54116;53.518;49.398;2024-03-08T11:33:15;-9.07;118.99
67186;HTU21D;54116;53.518;49.398;2024-03-08T11:35:42;-8.93;118.99
67186;HTU21D;54116;53.518;49.398;2024-03-08T11:38:12;-8.77;118.99
67186;HTU21D;54116;53.518;49.398;2024-03-08T11:40:39;-8.89;118.99
67186;HTU21D;54116;53.518;49.398;2024-03-08T11:43:05;-8.92;118.99
67186;HTU21D;54116;53.518;49.398;2024-03-08T11:45:34;-8.78;118.99
67186;HTU21D;54116;53.518;49.398;2024-03-08T11:48:03;-8.80;118.99
67186;HTU21D;54116;53.518;49.398;2024-03-08T11:50:29;-8.73;118.99
67186;HTU21D;54116;53.518;49.398;2024-03-08T11:53:06;-8.96;118.99
67186;HTU21D;54116;53.518;49.398;2024-03-08T11:55:33;-9.25;118.99
67186;HTU21D;54116;53.518;49.398;2024-03-08T11:58:05;-9.30;118.99
67186;HTU21D;54116;53.518;49.398;2024-03-08T12:00:34;-8.99;118.99
67186;HTU21D;54116;53.518;49.398;2024-03-08T12:03:08;-8.73;118.99
67186;HTU21D;54116;53.518;49.398;2024-03-08T12:05:38;-8.85;118.99
67186;HTU21D;54116;53.518;49.398;2024-03-08T12:08:04;-9.00;118.99
67186;HTU21D;54116;53.518;49.398;2024-03-08T12:10:38;-9.09;118.99
67186;HTU21D;54116;53.518;49.398;2024-03-08T12:13:04;-9.27;118.99
67186;HTU21D;54116;53.518;49.398;2024-03-08T12:15:39;-9.10;118.99
67186;HTU21D;54116;53.518;49.398;2024-03-08T12:18:06;-9.40;118.99
67186;HTU21D;54116;53.518;49.398;2024-03-08T12:20:34;-9.45;118.99
67186;HTU21D;54116;53.518;49.398;2024-03-08T12:23:00;-9.66;118.99
67186;HTU21D;54116;53.518;49.398;2024-03-08T12:25:27;-9.37;118.99
67186;HTU21D;54116;53.518;49.398;2024-03-08T12:28:06;-9.23;118.99
67186;HTU21D;54116;53.518;49.398;2024-03-08T12:30:52;-9.24;118.99
67186;HTU21D;54116;53.518;49.398;2024-03-08T12:33:24;-9.43;118.99
67186;HTU21D;54116;53.518;49.398;2024-03-08T12:35:54;-9.64;118.99
67186;HTU21D;54116;53.518;49.398;2024-03-08T12:38:21;-9.72;118.99
67186;HTU21D;54116;53.518;49.398;2024-03-08T12:40:54;-9.90;118.99
67186;HTU21D;54116;53.518;49.398;2024-03-08T12:43:20;-9.78;118.99
67186;HTU21D;54116;53.518;49.398;2024-03-08T12:45:46;-9.76;118.99
67186;HTU21D;54116;53.518;49.398;2024-03-08T12:48:13;-9.73;118.99
67186;HTU21D;54116;53.518;49.398;2024-03-08T12:50:43;-9.70;118.99
67186;HTU21D;54116;53.518;49.398;2024-03-08T12:53:14;-9.75;118.99
67186;HTU21D;54116;53.518;49.398;2024-03-08T12:55:41;-10.06;118.99
67186;HTU21D;54116;53.518;49.398;2024-03-08T12:58:07;-10.22;118.99
67186;HTU21D;54116;53.518;49.398;2024-03-08T13:00:34;-10.07;118.99
67186;HTU21D;54116;53.518;49.398;2024-03-08T13:03:02;-10.21;118.99
67186;HTU21D;54116;53.518;49.398;2024-03-08T13:05:33;-10.21;118.99
67186;HTU21D;54116;53.518;49.398;2024-03-08T13:08:00;-10.18;118.99
67186;HTU21D;54116;53.518;49.398;2024-03-08T13:10:26;-10.27;118.99
67186;HTU21D;54116;53.518;49.398;2024-03-08T13:12:52;-10.26;118.99
67186;HTU21D;54116;53.518;49.398;2024-03-08T13:15:19;-10.30;118.99
67186;HTU21D;54116;53.518;49.398;2024-03-08T13:17:48;-10.44;118.99
67186;HTU21D;54116;53.518;49.398;2024-03-08T13:20:15;-10.43;118.99
67186;HTU21D;54116;53.518;49.398;2024-03-08T13:22:48;-10.59;118.99
67186;HTU21D;54116;53.518;49.398;2024-03-08T13:25:14;-10.68;118.99
67186;HTU21D;54116;53.518;49.398;2024-03-08T13:27:41;-10.63;118.99
67186;HTU21D;54116;53.518;49.398;2024-03-08T13:30:10;-10.68;118.99
67186;HTU21D;54116;53.518;49.398;2024-03-08T13:32:40;-10.86;118.99
67186;HTU21D;54116;53.518;49.398;2024-03-08T13:35:12;-10.97;118.99
67186;HTU21D;54116;53.518;49.398;2024-03-08T13:37:42;-10.95;118.99
67186;HTU21D;54116;53.518;49.398;2024-03-08T13:40:09;-11.00;118.99
67186;HTU21D;54116;53.518;49.398;2024-03-08T13:42:40;-11.19;118.99
67186;HTU21D;54116;53.518;49.398;2024-03-08T13:45:10;-11.17;118.99
67186;HTU21D;54116;53.518;49.398;2024-03-08T13:47:41;-11.21;118.99
67186;HTU21D;54116;53.518;49.398;2024-03-08T13:50:08;-11.40;118.99
67186;HTU21D;54116;53.518;49.398;2024-03-08T13:52:38;-11.47;118.99
67186;HTU21D;54116;53.518;49.398;2024-03-08T13:55:07;-11.48;118.99
67186;HTU21D;54116;53.518;49.398;2024-03-08T13:57:36;-11.52;118.99
67186;HTU21D;54116;53.518;49.398;2024-03-08T14:00:02;-11.52;118.99
67186;HTU21D;54116;53.518;49.398;2024-03-08T14:02:29;-11.56;118.99
67186;HTU21D;54116;53.518;49.398;2024-03-08T14:04:56;-11.59;118.99
67186;HTU21D;54116;53.518;49.398;2024-03-08T14:07:23;-11.67;118.99
67186;HTU21D;54116;53.518;49.398;2024-03-08T14:09:50;-11.78;118.99
67186;HTU21D;54116;53.518;49.398;2024-03-08T14:12:19;-11.89;118.99
67186;HTU21D;54116;53.518;49.398;2024-03-08T14:14:45;-11.89;118.99
67186;HTU21D;54116;53.518;49.398;2024-03-08T14:17:11;-11.92;118.99
67186;HTU21D;54116;53.518;49.398;2024-03-08T14:19:44;-11.98;118.99
67186;HTU21D;54116;53.518;49.398;2024-03-08T14:22:11;-12.08;118.99
67186;HTU21D;54116;53.518;49.398;2024-03-08T14:24:41;-12.01;118.99
67186;HTU21D;54116;53.518;49.398;2024-03-08T14:27:08;-11.98;118.99
67186;HTU21D;54116;53.518;49.398;2024-03-08T14:29:35;-12.11;118.99
67186;HTU21D;54116;53.518;49.398;2024-03-08T14:32:01;-12.11;118.99
67186;HTU21D;54116;53.518;49.398;2024-03-08T14:34:29;-12.04;118.99
67186;HTU21D;54116;53.518;49.398;2024-03-08T14:36:56;-12.07;118.99
67186;HTU21D;54116;53.518;49.398;2024-03-08T14:39:22;-12.09;118.99
67186;HTU21D;54116;53.518;49.398;2024-03-08T14:41:53;-12.07;118.99
67186;HTU21D;54116;53.518;49.398;2024-03-08T14:44:23;-12.18;118.99
67186;HTU21D;54116;53.518;49.398;2024-03-08T14:46:52;-12.15;118.99
67186;HTU21D;54116;53.518;49.398;2024-03-08T14:49:19;-12.18;118.99